sensor_id;sensor_type;location;lat;lon;timestamp;pressure;altitude;pressure_sealevel;temperature
15453;BMP280;7827;53.594;9.938;2023-07-31T00:00:05;28955.75;;;-135.29
15453;BMP280;7827;53.594;9.938;2023-07-31T00:02:37;29127.88;;;-135.29
15453;BMP280;7827;53.594;9.938;2023-07-31T00:05:07;29174.31;;;-135.29
15453;BMP280;7827;53.594;9.938;2023-07-31T00:07:36;29249.72;;;-135.29
15453;BMP280;7827;53.594;9.938;2023-07-31T00:10:06;28946.06;;;-135.29
15453;BMP280;7827;53.594;9.938;2023-07-31T00:12:35;28957.69;;;-135.29
15453;BMP280;7827;53.594;9.938;2023-07-31T00:15:05;29025.38;;;-135.29
15453;BMP280;7827;53.594;9.938;2023-07-31T00:17:34;29011.84;;;-135.29
15453;BMP280;7827;53.594;9.938;2023-07-31T00:20:03;28872.59;;;-135.29
15453;BMP280;7827;53.594;9.938;2023-07-31T00:22:32;29002.16;;;-135.29
15453;BMP280;7827;53.594;9.938;2023-07-31T00:25:01;28888.06;;;-135.29
15453;BMP280;7827;53.594;9.938;2023-07-31T00:27:29;29096.94;;;-135.29
15453;BMP280;7827;53.594;9.938;2023-07-31T00:29:59;28951.88;;;-135.29
15453;BMP280;7827;53.594;9.938;2023-07-31T00:32:28;29015.69;;;-135.29
15453;BMP280;7827;53.594;9.938;2023-07-31T00:34:56;29242.00;;;-135.29
15453;BMP280;7827;53.594;9.938;2023-07-31T00:37:25;29035.03;;;-135.29
15453;BMP280;7827;53.594;9.938;2023-07-31T00:39:53;29195.56;;;-135.29
15453;BMP280;7827;53.594;9.938;2023-07-31T00:42:22;28884.19;;;-135.29
15453;BMP280;7827;53.594;9.938;2023-07-31T00:44:50;28919.00;;;-135.29
15453;BMP280;7827;53.594;9.938;2023-07-31T00:47:20;29236.19;;;-135.29
15453;BMP280;7827;53.594;9.938;2023-07-31T00:49:49;29139.47;;;-135.29
15453;BMP280;7827;53.594;9.938;2023-07-31T00:52:19;29216.84;;;-135.29
15453;BMP280;7827;53.594;9.938;2023-07-31T00:54:48;29242.00;;;-135.29
15453;BMP280;7827;53.594;9.938;2023-07-31T00:57:17;29309.69;;;-135.29
15453;BMP280;7827;53.594;9.938;2023-07-31T00:59:46;29296.16;;;-135.29
15453;BMP280;7827;53.594;9.938;2023-07-31T01:02:14;29342.59;;;-135.29
15453;BMP280;7827;53.594;9.938;2023-07-31T01:04:45;29402.53;;;-135.29
15453;BMP280;7827;53.594;9.938;2023-07-31T01:07:22;29267.16;;;-135.29
15453;BMP280;7827;53.594;9.938;2023-07-31T01:10:04;29358.06;;;-135.29
15453;BMP280;7827;53.594;9.938;2023-07-31T01:12:38;29344.50;;;-135.29
15453;BMP280;7827;53.594;9.938;2023-07-31T01:15:08;29336.78;;;-135.29
15453;BMP280;7827;53.594;9.938;2023-07-31T01:17:39;29390.94;;;-135.29
15453;BMP280;7827;53.594;9.938;2023-07-31T01:20:16;29522.47;;;-135.29
15453;BMP280;7827;53.594;9.938;2023-07-31T01:23:12;29565.03;;;-135.29
15453;BMP280;7827;53.594;9.938;2023-07-31T01:26:03;29286.50;;;-135.29
15453;BMP280;7827;53.594;9.938;2023-07-31T01:28:46;29499.25;;;-135.29
15453;BMP280;7827;53.594;9.938;2023-07-31T01:31:22;29437.38;;;-135.29
15453;BMP280;7827;53.594;9.938;2023-07-31T01:33:54;29454.78;;;-135.29
15453;BMP280;7827;53.594;9.938;2023-07-31T01:36:24;29654.03;;;-135.29
15453;BMP280;7827;53.594;9.938;2023-07-31T01:38:58;29327.09;;;-135.29
15453;BMP280;7827;53.594;9.938;2023-07-31T01:41:28;29483.78;;;-135.29
15453;BMP280;7827;53.594;9.938;2023-07-31T01:43:57;29534.09;;;-135.29
15453;BMP280;7827;53.594;9.938;2023-07-31T01:46:25;29621.13;;;-135.29
15453;BMP280;7827;53.594;9.938;2023-07-31T01:48:54;29628.88;;;-135.29
15453;BMP280;7827;53.594;9.938;2023-07-31T01:51:23;29615.34;;;-135.29
15453;BMP280;7827;53.594;9.938;2023-07-31T01:53:52;29654.03;;;-135.29
15453;BMP280;7827;53.594;9.938;2023-07-31T01:56:20;29468.31;;;-135.29
15453;BMP280;7827;53.594;9.938;2023-07-31T01:58:50;29669.50;;;-135.29
15453;BMP280;7827;53.594;9.938;2023-07-31T02:01:18;29574.72;;;-135.29
15453;BMP280;7827;53.594;9.938;2023-07-31T02:03:46;29478.00;;;-135.29
15453;BMP280;7827;53.594;9.938;2023-07-31T02:06:15;29396.75;;;-135.29
15453;BMP280;7827;53.594;9.938;2023-07-31T02:08:43;29572.78;;;-135.29
15453;BMP280;7827;53.594;9.938;2023-07-31T02:11:12;29487.66;;;-135.29
15453;BMP280;7827;53.594;9.938;2023-07-31T02:13:41;29450.91;;;-135.29
15453;BMP280;7827;53.594;9.938;2023-07-31T02:16:11;29489.59;;;-135.29
15453;BMP280;7827;53.594;9.938;2023-07-31T02:18:39;29625.00;;;-135.29
15453;BMP280;7827;53.594;9.938;2023-07-31T02:21:07;29394.81;;;-135.29
15453;BMP280;7827;53.594;9.938;2023-07-31T02:23:36;29371.59;;;-135.29
15453;BMP280;7827;53.594;9.938;2023-07-31T02:26:05;29267.16;;;-135.29
15453;BMP280;7827;53.594;9.938;2023-07-31T02:28:33;29185.91;;;-135.29
15453;BMP280;7827;53.594;9.938;2023-07-31T02:31:02;29338.72;;;-135.29
15453;BMP280;7827;53.594;9.938;2023-07-31T02:33:31;29294.22;;;-135.29
15453;BMP280;7827;53.594;9.938;2023-07-31T02:36:00;29247.81;;;-135.29
15453;BMP280;7827;53.594;9.938;2023-07-31T02:38:28;29433.50;;;-135.29
15453;BMP280;7827;53.594;9.938;2023-07-31T02:40:57;29290.34;;;-135.29
15453;BMP280;7827;53.594;9.938;2023-07-31T02:43:27;29369.66;;;-135.29
15453;BMP280;7827;53.594;9.938;2023-07-31T02:45:55;29220.72;;;-135.29
15453;BMP280;7827;53.594;9.938;2023-07-31T02:48:23;29222.66;;;-135.29
15453;BMP280;7827;53.594;9.938;2023-07-31T02:50:53;29360.00;;;-135.29
15453;BMP280;7827;53.594;9.938;2023-07-31T02:53:22;29452.84;;;-135.29
15453;BMP280;7827;53.594;9.938;2023-07-31T02:55:50;29300.03;;;-135.29
15453;BMP280;7827;53.594;9.938;2023-07-31T02:58:18;29603.72;;;-135.29
15453;BMP280;7827;53.594;9.938;2023-07-31T03:00:47;29282.63;;;-135.29
15453;BMP280;7827;53.594;9.938;2023-07-31T03:03:15;29487.66;;;-135.29
15453;BMP280;7827;53.594;9.938;2023-07-31T03:05:43;29487.66;;;-135.29
15453;BMP280;7827;53.594;9.938;2023-07-31T03:08:13;29414.16;;;-135.29
15453;BMP280;7827;53.594;9.938;2023-07-31T03:10:41;29394.81;;;-135.29
15453;BMP280;7827;53.594;9.938;2023-07-31T03:13:10;29276.81;;;-135.29
15453;BMP280;7827;53.594;9.938;2023-07-31T03:15:41;29363.84;;;-135.29
15453;BMP280;7827;53.594;9.938;2023-07-31T03:18:10;29410.28;;;-135.29
15453;BMP280;7827;53.594;9.938;2023-07-31T03:20:42;29421.88;;;-135.29
15453;BMP280;7827;53.594;9.938;2023-07-31T03:23:12;29315.50;;;-135.29
15453;BMP280;7827;53.594;9.938;2023-07-31T03:25:55;29410.28;;;-135.29
15453;BMP280;7827;53.594;9.938;2023-07-31T03:28:27;29605.66;;;-135.29
15453;BMP280;7827;53.594;9.938;2023-07-31T03:30:56;29524.41;;;-135.29
15453;BMP280;7827;53.594;9.938;2023-07-31T03:33:24;29381.28;;;-135.29
15453;BMP280;7827;53.594;9.938;2023-07-31T03:35:53;29499.25;;;-135.29
15453;BMP280;7827;53.594;9.938;2023-07-31T03:38:23;29301.97;;;-135.29
15453;BMP280;7827;53.594;9.938;2023-07-31T03:40:53;29390.94;;;-135.29
15453;BMP280;7827;53.594;9.938;2023-07-31T03:43:21;29317.44;;;-135.29
15453;BMP280;7827;53.594;9.938;2023-07-31T03:45:50;29433.50;;;-135.29
15453;BMP280;7827;53.594;9.938;2023-07-31T03:48:18;29209.13;;;-135.29
15453;BMP280;7827;53.594;9.938;2023-07-31T03:50:46;29348.38;;;-135.29
15453;BMP280;7827;53.594;9.938;2023-07-31T03:53:16;29313.56;;;-135.29
15453;BMP280;7827;53.594;9.938;2023-07-31T03:55:45;29243.94;;;-135.29
15453;BMP280;7827;53.594;9.938;2023-07-31T03:58:14;29282.63;;;-135.29
15453;BMP280;7827;53.594;9.938;2023-07-31T04:00:42;29238.13;;;-135.29
15453;BMP280;7827;53.594;9.938;2023-07-31T04:03:11;29334.84;;;-135.29
15453;BMP280;7827;53.594;9.938;2023-07-31T04:05:39;29294.22;;;-135.29
15453;BMP280;7827;53.594;9.938;2023-07-31T04:08:08;29369.66;;;-135.29
15453;BMP280;7827;53.594;9.938;2023-07-31T04:10:36;29392.88;;;-135.29
15453;BMP280;7827;53.594;9.938;2023-07-31T04:13:06;29394.81;;;-135.29
15453;BMP280;7827;53.594;9.938;2023-07-31T04:15:34;29592.13;;;-135.29
15453;BMP280;7827;53.594;9.938;2023-07-31T04:18:02;29249.72;;;-135.29
15453;BMP280;7827;53.594;9.938;2023-07-31T04:20:31;29392.88;;;-135.29
15453;BMP280;7827;53.594;9.938;2023-07-31T04:22:59;29261.34;;;-135.29
15453;BMP280;7827;53.594;9.938;2023-07-31T04:25:27;29363.84;;;-135.29
15453;BMP280;7827;53.594;9.938;2023-07-31T04:27:56;29247.81;;;-135.29
15453;BMP280;7827;53.594;9.938;2023-07-31T04:30:27;29423.81;;;-135.29
15453;BMP280;7827;53.594;9.938;2023-07-31T04:32:55;29479.91;;;-135.29
15453;BMP280;7827;53.594;9.938;2023-07-31T04:35:23;29414.16;;;-135.29
15453;BMP280;7827;53.594;9.938;2023-07-31T04:37:52;29437.38;;;-135.29
15453;BMP280;7827;53.594;9.938;2023-07-31T04:40:21;29298.09;;;-135.29
15453;BMP280;7827;53.594;9.938;2023-07-31T04:42:49;29389.00;;;-135.29
15453;BMP280;7827;53.594;9.938;2023-07-31T04:45:18;29387.06;;;-135.29
15453;BMP280;7827;53.594;9.938;2023-07-31T04:47:47;29503.13;;;-135.29
15453;BMP280;7827;53.594;9.938;2023-07-31T04:50:16;29472.19;;;-135.29
15453;BMP280;7827;53.594;9.938;2023-07-31T04:52:44;29406.41;;;-135.29
15453;BMP280;7827;53.594;9.938;2023-07-31T04:55:13;29129.81;;;-135.29
15453;BMP280;7827;53.594;9.938;2023-07-31T04:57:41;29247.81;;;-135.29
15453;BMP280;7827;53.594;9.938;2023-07-31T05:00:10;29098.88;;;-135.29
15453;BMP280;7827;53.594;9.938;2023-07-31T05:02:39;28984.75;;;-135.29
15453;BMP280;7827;53.594;9.938;2023-07-31T05:05:09;28690.78;;;-135.29
15453;BMP280;7827;53.594;9.938;2023-07-31T05:07:37;28580.56;;;-135.29
15453;BMP280;7827;53.594;9.938;2023-07-31T05:10:07;28613.44;;;-135.29
15453;BMP280;7827;53.594;9.938;2023-07-31T05:12:35;28862.91;;;-135.29
15453;BMP280;7827;53.594;9.938;2023-07-31T05:15:05;28654.03;;;-135.29
15453;BMP280;7827;53.594;9.938;2023-07-31T05:17:33;28530.28;;;-135.29
15453;BMP280;7827;53.594;9.938;2023-07-31T05:20:02;28578.63;;;-135.29
15453;BMP280;7827;53.594;9.938;2023-07-31T05:22:32;28717.88;;;-135.29
15453;BMP280;7827;53.594;9.938;2023-07-31T05:25:00;28777.81;;;-135.29
15453;BMP280;7827;53.594;9.938;2023-07-31T05:27:29;28389.13;;;-135.29
15453;BMP280;7827;53.594;9.938;2023-07-31T05:29:57;28534.16;;;-135.29
15453;BMP280;7827;53.594;9.938;2023-07-31T05:32:25;28801.03;;;-135.29
15453;BMP280;7827;53.594;9.938;2023-07-31T05:34:54;28582.50;;;-135.29
15453;BMP280;7827;53.594;9.938;2023-07-31T05:37:22;28996.34;;;-135.29
15453;BMP280;7827;53.594;9.938;2023-07-31T05:39:52;28717.88;;;-135.29
15453;BMP280;7827;53.594;9.938;2023-07-31T05:42:20;28714.00;;;-135.29
15453;BMP280;7827;53.594;9.938;2023-07-31T05:44:49;28714.00;;;-135.29
15453;BMP280;7827;53.594;9.938;2023-07-31T05:47:17;28317.56;;;-135.29
15453;BMP280;7827;53.594;9.938;2023-07-31T05:49:46;28485.81;;;-135.29
15453;BMP280;7827;53.594;9.938;2023-07-31T05:52:14;28460.66;;;-135.29
15453;BMP280;7827;53.594;9.938;2023-07-31T05:54:42;28530.28;;;-135.29
15453;BMP280;7827;53.594;9.938;2023-07-31T05:57:12;28377.53;;;-135.29
15453;BMP280;7827;53.594;9.938;2023-07-31T05:59:40;28298.25;;;-135.29
15453;BMP280;7827;53.594;9.938;2023-07-31T06:02:09;28315.66;;;-135.29
15453;BMP280;7827;53.594;9.938;2023-07-31T06:04:37;28555.41;;;-135.29
15453;BMP280;7827;53.594;9.938;2023-07-31T06:07:06;28638.56;;;-135.29
15453;BMP280;7827;53.594;9.938;2023-07-31T06:09:34;28443.25;;;-135.29
15453;BMP280;7827;53.594;9.938;2023-07-31T06:12:03;28518.69;;;-135.29
15453;BMP280;7827;53.594;9.938;2023-07-31T06:14:33;28271.16;;;-135.29
15453;BMP280;7827;53.594;9.938;2023-07-31T06:17:01;28441.34;;;-135.29
15453;BMP280;7827;53.594;9.938;2023-07-31T06:19:29;28497.41;;;-135.29
15453;BMP280;7827;53.594;9.938;2023-07-31T06:21:58;28501.28;;;-135.29
15453;BMP280;7827;53.594;9.938;2023-07-31T06:24:27;28362.06;;;-135.29
15453;BMP280;7827;53.594;9.938;2023-07-31T06:26:56;28263.44;;;-135.29
15453;BMP280;7827;53.594;9.938;2023-07-31T06:29:25;28211.22;;;-135.29
15453;BMP280;7827;53.594;9.938;2023-07-31T06:31:55;28319.50;;;-135.29
15453;BMP280;7827;53.594;9.938;2023-07-31T06:34:23;28238.31;;;-135.29
15453;BMP280;7827;53.594;9.938;2023-07-31T06:36:52;28101.03;;;-135.29
15453;BMP280;7827;53.594;9.938;2023-07-31T06:39:20;28060.41;;;-135.29
15453;BMP280;7827;53.594;9.938;2023-07-31T06:41:48;27870.94;;;-135.29
15453;BMP280;7827;53.594;9.938;2023-07-31T06:44:17;28083.63;;;-135.29
15453;BMP280;7827;53.594;9.938;2023-07-31T06:46:46;28195.75;;;-135.29
15453;BMP280;7827;53.594;9.938;2023-07-31T06:49:15;28489.69;;;-135.29
15453;BMP280;7827;53.594;9.938;2023-07-31T06:51:44;28439.41;;;-135.29
15453;BMP280;7827;53.594;9.938;2023-07-31T06:54:12;28416.19;;;-135.29
15453;BMP280;7827;53.594;9.938;2023-07-31T06:56:40;28447.13;;;-135.29
15453;BMP280;7827;53.594;9.938;2023-07-31T06:59:09;28257.63;;;-135.29
15453;BMP280;7827;53.594;9.938;2023-07-31T07:01:37;28280.84;;;-135.29
15453;BMP280;7827;53.594;9.938;2023-07-31T07:04:06;28130.03;;;-135.29
15453;BMP280;7827;53.594;9.938;2023-07-31T07:06:35;28172.56;;;-135.29
15453;BMP280;7827;53.594;9.938;2023-07-31T07:09:04;28451.00;;;-135.29
15453;BMP280;7827;53.594;9.938;2023-07-31T07:11:33;28133.88;;;-135.29
15453;BMP280;7827;53.594;9.938;2023-07-31T07:14:01;28242.16;;;-135.29
15453;BMP280;7827;53.594;9.938;2023-07-31T07:16:30;28139.69;;;-135.29
15453;BMP280;7827;53.594;9.938;2023-07-31T07:18:58;27841.94;;;-135.29
15453;BMP280;7827;53.594;9.938;2023-07-31T07:21:31;27921.22;;;-135.29
15453;BMP280;7827;53.594;9.938;2023-07-31T07:24:01;27961.81;;;-135.29
15453;BMP280;7827;53.594;9.938;2023-07-31T07:26:29;27859.34;;;-135.29
15453;BMP280;7827;53.594;9.938;2023-07-31T07:28:57;27855.47;;;-135.29
15453;BMP280;7827;53.594;9.938;2023-07-31T07:31:28;27828.41;;;-135.29
15453;BMP280;7827;53.594;9.938;2023-07-31T07:33:56;27863.22;;;-135.29
15453;BMP280;7827;53.594;9.938;2023-07-31T07:36:27;27671.81;;;-135.29
15453;BMP280;7827;53.594;9.938;2023-07-31T07:38:55;27836.16;;;-135.29
15453;BMP280;7827;53.594;9.938;2023-07-31T07:41:26;27944.41;;;-135.29
15453;BMP280;7827;53.594;9.938;2023-07-31T07:43:54;27660.22;;;-135.29
15453;BMP280;7827;53.594;9.938;2023-07-31T07:46:23;27648.63;;;-135.29
15453;BMP280;7827;53.594;9.938;2023-07-31T07:48:51;27843.88;;;-135.29
15453;BMP280;7827;53.594;9.938;2023-07-31T07:51:19;27913.47;;;-135.29
15453;BMP280;7827;53.594;9.938;2023-07-31T07:53:48;27698.91;;;-135.29
15453;BMP280;7827;53.594;9.938;2023-07-31T07:56:16;27524.91;;;-135.29
15453;BMP280;7827;53.594;9.938;2023-07-31T07:58:48;27312.28;;;-135.29
15453;BMP280;7827;53.594;9.938;2023-07-31T08:01:17;27124.81;;;-135.29
15453;BMP280;7827;53.594;9.938;2023-07-31T08:03:46;26807.84;;;-135.29
15453;BMP280;7827;53.594;9.938;2023-07-31T08:06:14;26825.25;;;-135.29
15453;BMP280;7827;53.594;9.938;2023-07-31T08:08:43;26657.09;;;-135.29
15453;BMP280;7827;53.594;9.938;2023-07-31T08:11:11;26554.69;;;-135.29
15453;BMP280;7827;53.594;9.938;2023-07-31T08:13:39;26328.63;;;-135.29
15453;BMP280;7827;53.594;9.938;2023-07-31T08:16:09;26477.41;;;-135.29
15453;BMP280;7827;53.594;9.938;2023-07-31T08:18:38;26790.44;;;-135.29
15453;BMP280;7827;53.594;9.938;2023-07-31T08:21:08;26776.91;;;-135.29
15453;BMP280;7827;53.594;9.938;2023-07-31T08:23:36;26815.56;;;-135.29
15453;BMP280;7827;53.594;9.938;2023-07-31T08:26:05;26776.91;;;-135.29
15453;BMP280;7827;53.594;9.938;2023-07-31T08:28:33;26506.38;;;-135.29
15453;BMP280;7827;53.594;9.938;2023-07-31T08:31:02;26517.97;;;-135.29
15453;BMP280;7827;53.594;9.938;2023-07-31T08:33:31;26398.16;;;-135.29
15453;BMP280;7827;53.594;9.938;2023-07-31T08:36:00;26177.91;;;-135.29
15453;BMP280;7827;53.594;9.938;2023-07-31T08:38:28;26208.81;;;-135.29
15453;BMP280;7827;53.594;9.938;2023-07-31T08:40:57;26181.78;;;-135.29
15453;BMP280;7827;53.594;9.938;2023-07-31T08:43:27;26027.19;;;-135.29
15453;BMP280;7827;53.594;9.938;2023-07-31T08:45:55;26216.53;;;-135.29
15453;BMP280;7827;53.594;9.938;2023-07-31T08:48:25;25934.47;;;-135.29
15453;BMP280;7827;53.594;9.938;2023-07-31T08:50:55;26332.47;;;-135.29
15453;BMP280;7827;53.594;9.938;2023-07-31T08:53:23;25969.25;;;-135.29
15453;BMP280;7827;53.594;9.938;2023-07-31T08:55:53;25967.31;;;-135.29
15453;BMP280;7827;53.594;9.938;2023-07-31T08:58:23;26112.22;;;-135.29
15453;BMP280;7827;53.594;9.938;2023-07-31T09:00:53;25689.13;;;-135.29
15453;BMP280;7827;53.594;9.938;2023-07-31T09:03:25;25310.53;;;-135.29
15453;BMP280;7827;53.594;9.938;2023-07-31T09:05:56;25785.72;;;-135.29
15453;BMP280;7827;53.594;9.938;2023-07-31T09:08:31;26116.06;;;-135.29
15453;BMP280;7827;53.594;9.938;2023-07-31T09:11:01;26421.34;;;-135.29
15453;BMP280;7827;53.594;9.938;2023-07-31T09:13:31;26181.78;;;-135.29
15453;BMP280;7827;53.594;9.938;2023-07-31T09:16:00;26332.47;;;-135.29
15453;BMP280;7827;53.594;9.938;2023-07-31T09:18:28;26058.13;;;-135.29
15453;BMP280;7827;53.594;9.938;2023-07-31T09:21:05;26297.69;;;-135.29
15453;BMP280;7827;53.594;9.938;2023-07-31T09:23:42;26546.97;;;-135.29
15453;BMP280;7827;53.594;9.938;2023-07-31T09:26:11;26649.38;;;-135.29
15453;BMP280;7827;53.594;9.938;2023-07-31T09:28:39;26334.41;;;-135.29
15453;BMP280;7827;53.594;9.938;2023-07-31T09:31:08;26326.69;;;-135.29
15453;BMP280;7827;53.594;9.938;2023-07-31T09:33:54;26181.78;;;-135.29
15453;BMP280;7827;53.594;9.938;2023-07-31T09:36:30;25940.25;;;-135.29
15453;BMP280;7827;53.594;9.938;2023-07-31T09:39:02;25897.75;;;-135.29
15453;BMP280;7827;53.594;9.938;2023-07-31T09:41:31;26264.84;;;-135.29
15453;BMP280;7827;53.594;9.938;2023-07-31T09:44:04;25899.69;;;-135.29
15453;BMP280;7827;53.594;9.938;2023-07-31T09:46:35;25685.25;;;-135.29
15453;BMP280;7827;53.594;9.938;2023-07-31T09:49:08;25679.47;;;-135.29
15453;BMP280;7827;53.594;9.938;2023-07-31T09:51:40;25582.88;;;-135.29
15453;BMP280;7827;53.594;9.938;2023-07-31T09:54:10;25859.13;;;-135.29
15453;BMP280;7827;53.594;9.938;2023-07-31T09:56:43;25814.69;;;-135.29
15453;BMP280;7827;53.594;9.938;2023-07-31T09:59:14;25969.25;;;-135.29
15453;BMP280;7827;53.594;9.938;2023-07-31T10:01:46;25835.94;;;-135.29
15453;BMP280;7827;53.594;9.938;2023-07-31T10:04:19;25737.41;;;-135.29
15453;BMP280;7827;53.594;9.938;2023-07-31T10:06:55;25664.00;;;-135.29
15453;BMP280;7827;53.594;9.938;2023-07-31T10:09:27;25841.75;;;-135.29
15453;BMP280;7827;53.594;9.938;2023-07-31T10:12:00;25814.69;;;-135.29
15453;BMP280;7827;53.594;9.938;2023-07-31T10:14:32;25793.44;;;-135.29
15453;BMP280;7827;53.594;9.938;2023-07-31T10:17:02;25795.38;;;-135.29
15453;BMP280;7827;53.594;9.938;2023-07-31T10:19:31;25812.75;;;-135.29
15453;BMP280;7827;53.594;9.938;2023-07-31T10:22:03;25776.06;;;-135.29
15453;BMP280;7827;53.594;9.938;2023-07-31T10:24:33;25942.19;;;-135.29
15453;BMP280;7827;53.594;9.938;2023-07-31T10:27:03;25606.06;;;-135.29
15453;BMP280;7827;53.594;9.938;2023-07-31T10:29:32;25333.69;;;-135.29
15453;BMP280;7827;53.594;9.938;2023-07-31T10:32:02;25134.75;;;-135.29
15453;BMP280;7827;53.594;9.938;2023-07-31T10:34:34;25382.00;;;-135.29
15453;BMP280;7827;53.594;9.938;2023-07-31T10:37:24;25718.09;;;-135.29
15453;BMP280;7827;53.594;9.938;2023-07-31T10:39:59;25797.31;;;-135.29
15453;BMP280;7827;53.594;9.938;2023-07-31T10:42:33;25824.34;;;-135.29
15453;BMP280;7827;53.594;9.938;2023-07-31T10:45:05;25644.69;;;-135.29
15453;BMP280;7827;53.594;9.938;2023-07-31T10:47:38;25749.00;;;-135.29
15453;BMP280;7827;53.594;9.938;2023-07-31T10:50:21;26042.66;;;-135.29
15453;BMP280;7827;53.594;9.938;2023-07-31T10:52:55;26135.41;;;-135.29
15453;BMP280;7827;53.594;9.938;2023-07-31T10:55:32;26289.97;;;-135.29
15453;BMP280;7827;53.594;9.938;2023-07-31T10:58:08;26545.03;;;-135.29
15453;BMP280;7827;53.594;9.938;2023-07-31T11:00:39;26746.00;;;-135.29
15453;BMP280;7827;53.594;9.938;2023-07-31T11:03:09;27136.41;;;-135.29
15453;BMP280;7827;53.594;9.938;2023-07-31T11:05:48;26929.59;;;-135.29
15453;BMP280;7827;53.594;9.938;2023-07-31T11:08:22;26763.41;;;-135.29
15453;BMP280;7827;53.594;9.938;2023-07-31T11:11:07;26784.66;;;-135.29
15453;BMP280;7827;53.594;9.938;2023-07-31T11:13:42;26904.47;;;-135.29
15453;BMP280;7827;53.594;9.938;2023-07-31T11:16:13;26979.84;;;-135.29
15453;BMP280;7827;53.594;9.938;2023-07-31T11:18:43;27032.03;;;-135.29
15453;BMP280;7827;53.594;9.938;2023-07-31T11:21:13;27053.28;;;-135.29
15453;BMP280;7827;53.594;9.938;2023-07-31T11:23:46;27101.59;;;-135.29
15453;BMP280;7827;53.594;9.938;2023-07-31T11:26:16;27178.91;;;-135.29
15453;BMP280;7827;53.594;9.938;2023-07-31T11:28:47;27283.28;;;-135.29
15453;BMP280;7827;53.594;9.938;2023-07-31T11:31:16;27149.94;;;-135.29
15453;BMP280;7827;53.594;9.938;2023-07-31T11:33:45;27229.16;;;-135.29
15453;BMP280;7827;53.594;9.938;2023-07-31T11:36:15;27662.16;;;-135.29
15453;BMP280;7827;53.594;9.938;2023-07-31T11:38:45;27501.72;;;-135.29
15453;BMP280;7827;53.594;9.938;2023-07-31T11:41:16;27536.50;;;-135.29
15453;BMP280;7827;53.594;9.938;2023-07-31T11:43:47;27376.06;;;-135.29
15453;BMP280;7827;53.594;9.938;2023-07-31T11:46:16;27768.50;;;-135.29
15453;BMP280;7827;53.594;9.938;2023-07-31T11:48:46;28041.09;;;-135.29
15453;BMP280;7827;53.594;9.938;2023-07-31T11:51:15;28000.47;;;-135.29
15453;BMP280;7827;53.594;9.938;2023-07-31T11:53:51;28062.34;;;-135.29
15453;BMP280;7827;53.594;9.938;2023-07-31T11:56:21;28278.91;;;-135.29
15453;BMP280;7827;53.594;9.938;2023-07-31T11:58:54;28580.56;;;-135.29
15453;BMP280;7827;53.594;9.938;2023-07-31T12:01:26;28837.78;;;-135.29
15453;BMP280;7827;53.594;9.938;2023-07-31T12:03:56;28597.97;;;-135.29
15453;BMP280;7827;53.594;9.938;2023-07-31T12:06:33;28675.31;;;-135.29
15453;BMP280;7827;53.594;9.938;2023-07-31T12:09:05;28717.88;;;-135.29
15453;BMP280;7827;53.594;9.938;2023-07-31T12:11:43;28526.41;;;-135.29
15453;BMP280;7827;53.594;9.938;2023-07-31T12:14:20;28628.91;;;-135.29
15453;BMP280;7827;53.594;9.938;2023-07-31T12:16:54;28452.94;;;-135.29
15453;BMP280;7827;53.594;9.938;2023-07-31T12:19:24;28501.28;;;-135.29
15453;BMP280;7827;53.594;9.938;2023-07-31T12:21:58;28766.22;;;-135.29
15453;BMP280;7827;53.594;9.938;2023-07-31T12:24:29;28594.09;;;-135.29
15453;BMP280;7827;53.594;9.938;2023-07-31T12:26:57;28646.31;;;-135.29
15453;BMP280;7827;53.594;9.938;2023-07-31T12:29:34;28712.06;;;-135.29
15453;BMP280;7827;53.594;9.938;2023-07-31T12:32:20;28860.97;;;-135.29
15453;BMP280;7827;53.594;9.938;2023-07-31T12:34:49;28930.59;;;-135.29
15453;BMP280;7827;53.594;9.938;2023-07-31T12:37:17;28737.19;;;-135.29
15453;BMP280;7827;53.594;9.938;2023-07-31T12:39:47;28938.34;;;-135.29
15453;BMP280;7827;53.594;9.938;2023-07-31T12:42:17;29011.84;;;-135.29
15453;BMP280;7827;53.594;9.938;2023-07-31T12:44:46;28857.09;;;-135.29
15453;BMP280;7827;53.594;9.938;2023-07-31T12:47:14;28859.03;;;-135.29
15453;BMP280;7827;53.594;9.938;2023-07-31T12:49:43;28764.28;;;-135.29
15453;BMP280;7827;53.594;9.938;2023-07-31T12:52:11;28578.63;;;-135.29
15453;BMP280;7827;53.594;9.938;2023-07-31T12:54:39;28696.59;;;-135.29
15453;BMP280;7827;53.594;9.938;2023-07-31T12:57:09;28733.34;;;-135.29
15453;BMP280;7827;53.594;9.938;2023-07-31T12:59:37;28597.97;;;-135.29
15453;BMP280;7827;53.594;9.938;2023-07-31T13:02:06;28667.59;;;-135.29
15453;BMP280;7827;53.594;9.938;2023-07-31T13:04:34;28586.38;;;-135.29
15453;BMP280;7827;53.594;9.938;2023-07-31T13:07:03;28625.03;;;-135.29
15453;BMP280;7827;53.594;9.938;2023-07-31T13:09:31;28474.22;;;-135.29
15453;BMP280;7827;53.594;9.938;2023-07-31T13:12:00;28539.94;;;-135.29
15453;BMP280;7827;53.594;9.938;2023-07-31T13:14:29;28568.97;;;-135.29
15453;BMP280;7827;53.594;9.938;2023-07-31T13:16:58;28509.00;;;-135.29
15453;BMP280;7827;53.594;9.938;2023-07-31T13:19:26;28429.72;;;-135.29
15453;BMP280;7827;53.594;9.938;2023-07-31T13:21:55;28276.97;;;-135.29
15453;BMP280;7827;53.594;9.938;2023-07-31T13:24:23;28261.50;;;-135.29
15453;BMP280;7827;53.594;9.938;2023-07-31T13:26:51;28217.03;;;-135.29
15453;BMP280;7827;53.594;9.938;2023-07-31T13:29:20;28273.09;;;-135.29
15453;BMP280;7827;53.594;9.938;2023-07-31T13:31:50;28085.56;;;-135.29
15453;BMP280;7827;53.594;9.938;2023-07-31T13:34:18;27814.88;;;-135.29
15453;BMP280;7827;53.594;9.938;2023-07-31T13:36:47;27484.31;;;-135.29
15453;BMP280;7827;53.594;9.938;2023-07-31T13:39:15;27418.59;;;-135.29
15453;BMP280;7827;53.594;9.938;2023-07-31T13:41:43;27575.16;;;-135.29
15453;BMP280;7827;53.594;9.938;2023-07-31T13:44:11;27874.81;;;-135.29
15453;BMP280;7827;53.594;9.938;2023-07-31T13:46:40;27936.69;;;-135.29
15453;BMP280;7827;53.594;9.938;2023-07-31T13:49:10;27466.91;;;-135.29
15453;BMP280;7827;53.594;9.938;2023-07-31T13:51:38;27708.56;;;-135.29
15453;BMP280;7827;53.594;9.938;2023-07-31T13:54:07;27617.69;;;-135.29
15453;BMP280;7827;53.594;9.938;2023-07-31T13:56:35;27472.72;;;-135.29
15453;BMP280;7827;53.594;9.938;2023-07-31T13:59:04;27484.31;;;-135.29
15453;BMP280;7827;53.594;9.938;2023-07-31T14:01:33;27845.81;;;-135.29
15453;BMP280;7827;53.594;9.938;2023-07-31T14:04:01;27805.22;;;-135.29
15453;BMP280;7827;53.594;9.938;2023-07-31T14:06:31;27515.25;;;-135.29
15453;BMP280;7827;53.594;9.938;2023-07-31T14:08:59;27426.31;;;-135.29
15453;BMP280;7827;53.594;9.938;2023-07-31T14:11:27;27242.69;;;-135.29